sensor_id;sensor_type;location;lat;lon;timestamp;P1;durP1;ratioP1;P2;durP2;ratioP2
1350;SDS011;669;50.206;9.998;2024-02-14T00:01:02;2.20;;;2.00;;
1350;SDS011;669;50.206;9.998;2024-02-14T00:03:30;2.00;;;1.60;;
1350;SDS011;669;50.206;9.998;2024-02-14T00:05:58;2.83;;;1.90;;
1350;SDS011;669;50.206;9.998;2024-02-14T00:08:26;1.40;;;1.30;;
1350;SDS011;669;50.206;9.998;2024-02-14T00:10:54;1.60;;;1.50;;
1350;SDS011;669;50.206;9.998;2024-02-14T00:13:23;2.10;;;1.53;;
1350;SDS011;669;50.206;9.998;2024-02-14T00:15:51;1.67;;;1.57;;
1350;SDS011;669;50.206;9.998;2024-02-14T00:18:19;2.10;;;1.90;;
1350;SDS011;669;50.206;9.998;2024-02-14T00:20:49;1.90;;;1.77;;
1350;SDS011;669;50.206;9.998;2024-02-14T00:23:17;1.83;;;1.70;;
1350;SDS011;669;50.206;9.998;2024-02-14T00:25:45;1.50;;;1.40;;
1350;SDS011;669;50.206;9.998;2024-02-14T00:28:13;1.50;;;1.40;;
1350;SDS011;669;50.206;9.998;2024-02-14T00:30:42;1.90;;;1.63;;
1350;SDS011;669;50.206;9.998;2024-02-14T00:33:10;1.30;;;1.20;;
1350;SDS011;669;50.206;9.998;2024-02-14T00:35:38;1.90;;;1.80;;
1350;SDS011;669;50.206;9.998;2024-02-14T00:38:06;4.17;;;1.50;;
1350;SDS011;669;50.206;9.998;2024-02-14T00:40:34;1.83;;;1.53;;
1350;SDS011;669;50.206;9.998;2024-02-14T00:43:03;1.53;;;1.43;;
1350;SDS011;669;50.206;9.998;2024-02-14T00:45:31;1.83;;;1.70;;
1350;SDS011;669;50.206;9.998;2024-02-14T00:48:00;1.53;;;1.43;;
1350;SDS011;669;50.206;9.998;2024-02-14T00:50:30;1.97;;;1.60;;
1350;SDS011;669;50.206;9.998;2024-02-14T00:53:00;1.67;;;1.57;;
1350;SDS011;669;50.206;9.998;2024-02-14T00:55:28;1.67;;;1.50;;
1350;SDS011;669;50.206;9.998;2024-02-14T00:57:55;1.50;;;1.40;;
1350;SDS011;669;50.206;9.998;2024-02-14T01:00:23;1.50;;;1.40;;
1350;SDS011;669;50.206;9.998;2024-02-14T01:02:52;1.37;;;1.27;;
1350;SDS011;669;50.206;9.998;2024-02-14T01:05:21;1.07;;;1.03;;
1350;SDS011;669;50.206;9.998;2024-02-14T01:07:49;1.67;;;1.13;;
1350;SDS011;669;50.206;9.998;2024-02-14T01:10:17;2.00;;;1.80;;
1350;SDS011;669;50.206;9.998;2024-02-14T01:12:45;1.13;;;1.13;;
1350;SDS011;669;50.206;9.998;2024-02-14T01:15:13;1.60;;;1.50;;
1350;SDS011;669;50.206;9.998;2024-02-14T01:17:41;1.17;;;1.10;;
1350;SDS011;669;50.206;9.998;2024-02-14T01:20:11;1.60;;;1.50;;
1350;SDS011;669;50.206;9.998;2024-02-14T01:22:41;1.60;;;1.40;;
1350;SDS011;669;50.206;9.998;2024-02-14T01:25:09;2.23;;;2.00;;
1350;SDS011;669;50.206;9.998;2024-02-14T01:27:38;1.60;;;1.50;;
1350;SDS011;669;50.206;9.998;2024-02-14T01:30:07;1.97;;;1.43;;
1350;SDS011;669;50.206;9.998;2024-02-14T01:32:36;1.77;;;1.50;;
1350;SDS011;669;50.206;9.998;2024-02-14T01:35:05;1.83;;;1.70;;
1350;SDS011;669;50.206;9.998;2024-02-14T01:37:36;1.73;;;1.50;;
1350;SDS011;669;50.206;9.998;2024-02-14T01:40:06;1.50;;;1.40;;
1350;SDS011;669;50.206;9.998;2024-02-14T01:42:34;2.03;;;1.43;;
1350;SDS011;669;50.206;9.998;2024-02-14T01:45:02;1.63;;;1.47;;
1350;SDS011;669;50.206;9.998;2024-02-14T01:47:31;1.63;;;1.50;;
1350;SDS011;669;50.206;9.998;2024-02-14T01:49:59;1.70;;;1.40;;
1350;SDS011;669;50.206;9.998;2024-02-14T01:52:28;2.10;;;1.60;;
1350;SDS011;669;50.206;9.998;2024-02-14T01:54:56;1.53;;;1.40;;
1350;SDS011;669;50.206;9.998;2024-02-14T01:57:26;2.30;;;1.93;;
1350;SDS011;669;50.206;9.998;2024-02-14T01:59:55;1.80;;;1.70;;
1350;SDS011;669;50.206;9.998;2024-02-14T02:02:25;1.97;;;1.80;;
1350;SDS011;669;50.206;9.998;2024-02-14T02:04:54;2.03;;;1.80;;
1350;SDS011;669;50.206;9.998;2024-02-14T02:07:22;2.40;;;1.67;;
1350;SDS011;669;50.206;9.998;2024-02-14T02:09:51;1.63;;;1.53;;
1350;SDS011;669;50.206;9.998;2024-02-14T02:12:19;1.87;;;1.77;;
1350;SDS011;669;50.206;9.998;2024-02-14T02:14:49;1.50;;;1.47;;
1350;SDS011;669;50.206;9.998;2024-02-14T02:17:17;1.70;;;1.40;;
1350;SDS011;669;50.206;9.998;2024-02-14T02:19:45;1.60;;;1.43;;
1350;SDS011;669;50.206;9.998;2024-02-14T02:22:13;1.70;;;1.60;;
1350;SDS011;669;50.206;9.998;2024-02-14T02:24:42;1.90;;;1.70;;
1350;SDS011;669;50.206;9.998;2024-02-14T02:27:11;1.40;;;1.30;;
1350;SDS011;669;50.206;9.998;2024-02-14T02:29:42;2.23;;;1.50;;
1350;SDS011;669;50.206;9.998;2024-02-14T02:32:10;1.87;;;1.77;;
1350;SDS011;669;50.206;9.998;2024-02-14T02:34:38;1.33;;;1.33;;
1350;SDS011;669;50.206;9.998;2024-02-14T02:37:06;1.67;;;1.57;;
1350;SDS011;669;50.206;9.998;2024-02-14T02:39:35;1.97;;;1.80;;
1350;SDS011;669;50.206;9.998;2024-02-14T02:42:05;1.83;;;1.73;;
1350;SDS011;669;50.206;9.998;2024-02-14T02:44:33;1.70;;;1.60;;
1350;SDS011;669;50.206;9.998;2024-02-14T02:47:04;1.57;;;1.47;;
1350;SDS011;669;50.206;9.998;2024-02-14T02:49:31;1.60;;;1.47;;
1350;SDS011;669;50.206;9.998;2024-02-14T02:51:59;1.50;;;1.40;;
1350;SDS011;669;50.206;9.998;2024-02-14T02:54:29;2.30;;;2.00;;
1350;SDS011;669;50.206;9.998;2024-02-14T02:56:57;1.80;;;1.67;;
1350;SDS011;669;50.206;9.998;2024-02-14T02:59:26;3.43;;;1.63;;
1350;SDS011;669;50.206;9.998;2024-02-14T03:01:55;1.80;;;1.70;;
1350;SDS011;669;50.206;9.998;2024-02-14T03:04:24;1.57;;;1.47;;
1350;SDS011;669;50.206;9.998;2024-02-14T03:07:12;2.30;;;1.50;;
1350;SDS011;669;50.206;9.998;2024-02-14T03:09:40;2.90;;;2.60;;
1350;SDS011;669;50.206;9.998;2024-02-14T03:12:09;2.00;;;1.77;;
1350;SDS011;669;50.206;9.998;2024-02-14T03:14:39;4.83;;;1.23;;
1350;SDS011;669;50.206;9.998;2024-02-14T03:17:09;1.60;;;1.53;;
1350;SDS011;669;50.206;9.998;2024-02-14T03:19:37;2.67;;;2.07;;
1350;SDS011;669;50.206;9.998;2024-02-14T03:22:07;1.60;;;1.50;;
1350;SDS011;669;50.206;9.998;2024-02-14T03:24:36;3.43;;;1.73;;
1350;SDS011;669;50.206;9.998;2024-02-14T03:27:04;1.97;;;1.77;;
1350;SDS011;669;50.206;9.998;2024-02-14T03:29:32;1.90;;;1.80;;
1350;SDS011;669;50.206;9.998;2024-02-14T03:32:03;1.70;;;1.60;;
1350;SDS011;669;50.206;9.998;2024-02-14T03:34:31;2.13;;;1.90;;
1350;SDS011;669;50.206;9.998;2024-02-14T03:37:02;1.63;;;1.53;;
1350;SDS011;669;50.206;9.998;2024-02-14T03:39:30;1.67;;;1.57;;
1350;SDS011;669;50.206;9.998;2024-02-14T03:41:59;1.40;;;1.30;;
1350;SDS011;669;50.206;9.998;2024-02-14T03:44:29;1.83;;;1.73;;
1350;SDS011;669;50.206;9.998;2024-02-14T03:46:58;1.40;;;1.30;;
1350;SDS011;669;50.206;9.998;2024-02-14T03:49:28;1.90;;;1.60;;
1350;SDS011;669;50.206;9.998;2024-02-14T03:51:56;1.73;;;1.37;;
1350;SDS011;669;50.206;9.998;2024-02-14T03:54:27;1.80;;;1.70;;
1350;SDS011;669;50.206;9.998;2024-02-14T03:56:55;2.03;;;1.30;;
1350;SDS011;669;50.206;9.998;2024-02-14T03:59:23;2.00;;;1.90;;
1350;SDS011;669;50.206;9.998;2024-02-14T04:01:51;3.90;;;2.20;;
1350;SDS011;669;50.206;9.998;2024-02-14T04:04:19;1.80;;;1.70;;
1350;SDS011;669;50.206;9.998;2024-02-14T04:06:49;2.17;;;1.90;;
1350;SDS011;669;50.206;9.998;2024-02-14T04:09:17;2.30;;;1.90;;
1350;SDS011;669;50.206;9.998;2024-02-14T04:11:45;2.30;;;1.60;;
1350;SDS011;669;50.206;9.998;2024-02-14T04:14:14;1.70;;;1.60;;
1350;SDS011;669;50.206;9.998;2024-02-14T04:16:42;1.67;;;1.57;;
1350;SDS011;669;50.206;9.998;2024-02-14T04:19:10;1.90;;;1.80;;
1350;SDS011;669;50.206;9.998;2024-02-14T04:21:39;4.57;;;2.57;;
1350;SDS011;669;50.206;9.998;2024-02-14T04:24:09;2.10;;;2.00;;
1350;SDS011;669;50.206;9.998;2024-02-14T04:26:37;2.90;;;2.60;;
1350;SDS011;669;50.206;9.998;2024-02-14T04:29:05;1.93;;;1.83;;
1350;SDS011;669;50.206;9.998;2024-02-14T04:31:35;2.97;;;2.30;;
1350;SDS011;669;50.206;9.998;2024-02-14T04:34:03;2.03;;;1.93;;
1350;SDS011;669;50.206;9.998;2024-02-14T04:36:34;1.90;;;1.80;;
1350;SDS011;669;50.206;9.998;2024-02-14T04:39:02;1.83;;;1.73;;
1350;SDS011;669;50.206;9.998;2024-02-14T04:41:32;1.67;;;1.57;;
1350;SDS011;669;50.206;9.998;2024-02-14T04:44:21;1.93;;;1.83;;
1350;SDS011;669;50.206;9.998;2024-02-14T04:46:49;1.77;;;1.67;;
1350;SDS011;669;50.206;9.998;2024-02-14T04:49:17;2.73;;;2.53;;
1350;SDS011;669;50.206;9.998;2024-02-14T04:51:46;2.60;;;2.40;;
1350;SDS011;669;50.206;9.998;2024-02-14T04:54:14;2.17;;;2.03;;
1350;SDS011;669;50.206;9.998;2024-02-14T04:56:44;3.00;;;2.70;;
1350;SDS011;669;50.206;9.998;2024-02-14T04:59:16;2.53;;;2.33;;
1350;SDS011;669;50.206;9.998;2024-02-14T05:01:44;1.80;;;1.70;;
1350;SDS011;669;50.206;9.998;2024-02-14T05:04:12;2.67;;;1.73;;
1350;SDS011;669;50.206;9.998;2024-02-14T05:06:40;2.03;;;1.67;;
1350;SDS011;669;50.206;9.998;2024-02-14T05:09:09;2.27;;;1.80;;
1350;SDS011;669;50.206;9.998;2024-02-14T05:11:37;2.07;;;1.97;;
1350;SDS011;669;50.206;9.998;2024-02-14T05:14:06;1.73;;;1.63;;
1350;SDS011;669;50.206;9.998;2024-02-14T05:16:34;2.20;;;2.10;;
1350;SDS011;669;50.206;9.998;2024-02-14T05:19:02;1.97;;;1.80;;
1350;SDS011;669;50.206;9.998;2024-02-14T05:21:31;2.40;;;2.20;;
1350;SDS011;669;50.206;9.998;2024-02-14T05:23:58;1.73;;;1.63;;
1350;SDS011;669;50.206;9.998;2024-02-14T05:26:26;1.97;;;1.90;;
1350;SDS011;669;50.206;9.998;2024-02-14T05:28:55;2.10;;;1.90;;
1350;SDS011;669;50.206;9.998;2024-02-14T05:31:24;3.10;;;2.43;;
1350;SDS011;669;50.206;9.998;2024-02-14T05:33:53;2.90;;;2.20;;
1350;SDS011;669;50.206;9.998;2024-02-14T05:36:21;2.20;;;2.10;;
1350;SDS011;669;50.206;9.998;2024-02-14T05:38:51;2.47;;;2.27;;
1350;SDS011;669;50.206;9.998;2024-02-14T05:41:19;2.37;;;2.17;;
1350;SDS011;669;50.206;9.998;2024-02-14T05:43:47;2.10;;;1.93;;
1350;SDS011;669;50.206;9.998;2024-02-14T05:46:15;1.50;;;1.40;;
1350;SDS011;669;50.206;9.998;2024-02-14T05:48:44;4.03;;;3.00;;
1350;SDS011;669;50.206;9.998;2024-02-14T05:51:13;3.27;;;2.97;;
1350;SDS011;669;50.206;9.998;2024-02-14T05:53:41;3.50;;;2.47;;
1350;SDS011;669;50.206;9.998;2024-02-14T05:56:09;3.53;;;2.70;;
1350;SDS011;669;50.206;9.998;2024-02-14T05:58:37;4.50;;;3.33;;
1350;SDS011;669;50.206;9.998;2024-02-14T06:01:05;3.60;;;3.30;;
1350;SDS011;669;50.206;9.998;2024-02-14T06:03:33;5.40;;;2.90;;
1350;SDS011;669;50.206;9.998;2024-02-14T06:06:02;2.83;;;2.63;;
1350;SDS011;669;50.206;9.998;2024-02-14T06:08:30;5.03;;;2.90;;
1350;SDS011;669;50.206;9.998;2024-02-14T06:10:58;5.10;;;2.60;;
1350;SDS011;669;50.206;9.998;2024-02-14T06:13:26;3.67;;;3.07;;
1350;SDS011;669;50.206;9.998;2024-02-14T06:15:55;2.90;;;2.60;;
1350;SDS011;669;50.206;9.998;2024-02-14T06:18:23;3.53;;;2.47;;
1350;SDS011;669;50.206;9.998;2024-02-14T06:20:51;5.40;;;2.63;;
1350;SDS011;669;50.206;9.998;2024-02-14T06:23:20;4.00;;;3.10;;
1350;SDS011;669;50.206;9.998;2024-02-14T06:25:48;4.97;;;2.67;;
1350;SDS011;669;50.206;9.998;2024-02-14T06:28:16;3.93;;;2.60;;
1350;SDS011;669;50.206;9.998;2024-02-14T06:30:44;3.30;;;2.20;;
1350;SDS011;669;50.206;9.998;2024-02-14T06:33:12;3.57;;;2.10;;
1350;SDS011;669;50.206;9.998;2024-02-14T06:35:40;3.10;;;2.80;;
1350;SDS011;669;50.206;9.998;2024-02-14T06:38:08;2.17;;;2.07;;
1350;SDS011;669;50.206;9.998;2024-02-14T06:40:38;3.13;;;1.73;;
1350;SDS011;669;50.206;9.998;2024-02-14T06:43:06;2.63;;;1.90;;
1350;SDS011;669;50.206;9.998;2024-02-14T06:45:34;4.10;;;3.03;;
1350;SDS011;669;50.206;9.998;2024-02-14T06:48:02;3.13;;;2.67;;
1350;SDS011;669;50.206;9.998;2024-02-14T06:50:31;3.37;;;2.20;;
1350;SDS011;669;50.206;9.998;2024-02-14T06:52:59;4.17;;;3.03;;
1350;SDS011;669;50.206;9.998;2024-02-14T06:55:27;7.97;;;5.40;;
1350;SDS011;669;50.206;9.998;2024-02-14T06:57:58;7.10;;;5.10;;
1350;SDS011;669;50.206;9.998;2024-02-14T07:00:26;8.43;;;4.60;;
1350;SDS011;669;50.206;9.998;2024-02-14T07:02:55;5.47;;;4.40;;
1350;SDS011;669;50.206;9.998;2024-02-14T07:05:23;5.70;;;4.53;;
1350;SDS011;669;50.206;9.998;2024-02-14T07:07:52;5.57;;;5.07;;
1350;SDS011;669;50.206;9.998;2024-02-14T07:10:20;5.40;;;4.17;;
1350;SDS011;669;50.206;9.998;2024-02-14T07:12:48;4.17;;;3.80;;
1350;SDS011;669;50.206;9.998;2024-02-14T07:15:17;4.40;;;4.00;;
1350;SDS011;669;50.206;9.998;2024-02-14T07:17:46;7.77;;;4.10;;
1350;SDS011;669;50.206;9.998;2024-02-14T07:20:14;5.37;;;3.70;;
1350;SDS011;669;50.206;9.998;2024-02-14T07:22:43;4.53;;;3.20;;
1350;SDS011;669;50.206;9.998;2024-02-14T07:25:13;3.80;;;3.50;;
1350;SDS011;669;50.206;9.998;2024-02-14T07:27:41;4.60;;;3.73;;
1350;SDS011;669;50.206;9.998;2024-02-14T07:30:10;5.47;;;4.20;;
1350;SDS011;669;50.206;9.998;2024-02-14T07:32:40;5.93;;;4.47;;
1350;SDS011;669;50.206;9.998;2024-02-14T07:35:08;6.20;;;4.10;;
1350;SDS011;669;50.206;9.998;2024-02-14T07:37:36;4.70;;;4.20;;
1350;SDS011;669;50.206;9.998;2024-02-14T07:40:04;4.77;;;4.33;;
1350;SDS011;669;50.206;9.998;2024-02-14T07:42:33;4.93;;;3.60;;
1350;SDS011;669;50.206;9.998;2024-02-14T07:45:01;5.83;;;4.30;;
1350;SDS011;669;50.206;9.998;2024-02-14T07:47:30;4.63;;;3.90;;
1350;SDS011;669;50.206;9.998;2024-02-14T07:49:59;4.93;;;4.00;;
1350;SDS011;669;50.206;9.998;2024-02-14T07:52:28;4.87;;;4.07;;
1350;SDS011;669;50.206;9.998;2024-02-14T07:55:00;4.60;;;4.10;;
1350;SDS011;669;50.206;9.998;2024-02-14T07:57:28;4.90;;;4.40;;
1350;SDS011;669;50.206;9.998;2024-02-14T07:59:56;5.00;;;4.50;;
1350;SDS011;669;50.206;9.998;2024-02-14T08:02:24;9.33;;;4.60;;
1350;SDS011;669;50.206;9.998;2024-02-14T08:04:54;5.00;;;3.97;;
1350;SDS011;669;50.206;9.998;2024-02-14T08:07:23;5.47;;;4.40;;
1350;SDS011;669;50.206;9.998;2024-02-14T08:09:51;7.13;;;4.20;;
1350;SDS011;669;50.206;9.998;2024-02-14T08:12:19;6.00;;;4.30;;
1350;SDS011;669;50.206;9.998;2024-02-14T08:14:48;4.50;;;3.90;;
1350;SDS011;669;50.206;9.998;2024-02-14T08:17:16;3.40;;;3.00;;
1350;SDS011;669;50.206;9.998;2024-02-14T08:19:44;3.50;;;3.00;;
1350;SDS011;669;50.206;9.998;2024-02-14T08:22:12;4.50;;;4.10;;
1350;SDS011;669;50.206;9.998;2024-02-14T08:24:41;4.37;;;3.97;;
1350;SDS011;669;50.206;9.998;2024-02-14T08:27:09;5.03;;;3.50;;
1350;SDS011;669;50.206;9.998;2024-02-14T08:29:37;3.80;;;3.50;;
1350;SDS011;669;50.206;9.998;2024-02-14T08:32:08;8.33;;;4.90;;
1350;SDS011;669;50.206;9.998;2024-02-14T08:34:36;5.80;;;4.17;;
1350;SDS011;669;50.206;9.998;2024-02-14T08:37:04;5.30;;;4.90;;
1350;SDS011;669;50.206;9.998;2024-02-14T08:39:34;4.77;;;3.70;;
1350;SDS011;669;50.206;9.998;2024-02-14T08:42:04;6.80;;;4.37;;
1350;SDS011;669;50.206;9.998;2024-02-14T08:44:34;5.90;;;5.40;;
1350;SDS011;669;50.206;9.998;2024-02-14T08:47:03;8.83;;;6.40;;
1350;SDS011;669;50.206;9.998;2024-02-14T08:49:31;11.13;;;7.37;;
1350;SDS011;669;50.206;9.998;2024-02-14T08:52:00;10.13;;;7.07;;
1350;SDS011;669;50.206;9.998;2024-02-14T08:54:28;14.13;;;7.97;;
1350;SDS011;669;50.206;9.998;2024-02-14T08:56:56;12.87;;;7.53;;
1350;SDS011;669;50.206;9.998;2024-02-14T08:59:27;10.80;;;8.80;;
1350;SDS011;669;50.206;9.998;2024-02-14T09:01:55;12.07;;;9.90;;
1350;SDS011;669;50.206;9.998;2024-02-14T09:04:23;9.50;;;7.23;;
1350;SDS011;669;50.206;9.998;2024-02-14T09:06:51;11.20;;;7.33;;
1350;SDS011;669;50.206;9.998;2024-02-14T09:09:19;9.07;;;6.97;;
1350;SDS011;669;50.206;9.998;2024-02-14T09:11:47;6.73;;;6.00;;
1350;SDS011;669;50.206;9.998;2024-02-14T09:14:15;8.13;;;6.13;;
1350;SDS011;669;50.206;9.998;2024-02-14T09:16:44;7.20;;;5.80;;
1350;SDS011;669;50.206;9.998;2024-02-14T09:19:12;5.77;;;5.10;;
1350;SDS011;669;50.206;9.998;2024-02-14T09:21:40;6.70;;;6.00;;
1350;SDS011;669;50.206;9.998;2024-02-14T09:24:09;6.23;;;5.63;;
1350;SDS011;669;50.206;9.998;2024-02-14T09:26:37;6.17;;;5.57;;
1350;SDS011;669;50.206;9.998;2024-02-14T09:29:06;5.93;;;5.43;;
1350;SDS011;669;50.206;9.998;2024-02-14T09:31:34;4.80;;;4.40;;
1350;SDS011;669;50.206;9.998;2024-02-14T09:34:03;4.00;;;3.70;;
1350;SDS011;669;50.206;9.998;2024-02-14T09:36:31;3.70;;;3.40;;
1350;SDS011;669;50.206;9.998;2024-02-14T09:38:59;4.70;;;3.67;;
1350;SDS011;669;50.206;9.998;2024-02-14T09:41:29;4.77;;;4.27;;
1350;SDS011;669;50.206;9.998;2024-02-14T09:44:00;7.10;;;5.57;;
1350;SDS011;669;50.206;9.998;2024-02-14T09:46:28;6.93;;;6.00;;
1350;SDS011;669;50.206;9.998;2024-02-14T09:48:56;6.47;;;5.73;;
1350;SDS011;669;50.206;9.998;2024-02-14T09:51:28;4.70;;;4.20;;
1350;SDS011;669;50.206;9.998;2024-02-14T09:53:57;5.77;;;4.50;;
1350;SDS011;669;50.206;9.998;2024-02-14T09:56:29;9.97;;;6.00;;
1350;SDS011;669;50.206;9.998;2024-02-14T09:58:58;9.87;;;6.83;;
1350;SDS011;669;50.206;9.998;2024-02-14T10:01:29;11.13;;;6.53;;
1350;SDS011;669;50.206;9.998;2024-02-14T10:03:57;10.60;;;8.50;;
1350;SDS011;669;50.206;9.998;2024-02-14T10:06:24;10.20;;;7.70;;
1350;SDS011;669;50.206;9.998;2024-02-14T10:08:54;8.17;;;6.80;;
1350;SDS011;669;50.206;9.998;2024-02-14T10:11:29;9.87;;;6.60;;
1350;SDS011;669;50.206;9.998;2024-02-14T10:13:59;8.70;;;6.43;;
1350;SDS011;669;50.206;9.998;2024-02-14T10:16:30;8.23;;;6.23;;
1350;SDS011;669;50.206;9.998;2024-02-14T10:18:58;12.63;;;7.10;;
1350;SDS011;669;50.206;9.998;2024-02-14T10:21:27;8.13;;;6.43;;
1350;SDS011;669;50.206;9.998;2024-02-14T10:24:00;8.17;;;5.50;;
1350;SDS011;669;50.206;9.998;2024-02-14T10:26:28;6.37;;;4.37;;
1350;SDS011;669;50.206;9.998;2024-02-14T10:28:56;7.93;;;4.50;;
1350;SDS011;669;50.206;9.998;2024-02-14T10:31:26;6.50;;;5.60;;
1350;SDS011;669;50.206;9.998;2024-02-14T10:33:54;29.17;;;16.90;;
1350;SDS011;669;50.206;9.998;2024-02-14T10:36:23;24.30;;;15.13;;
1350;SDS011;669;50.206;9.998;2024-02-14T10:38:52;21.13;;;14.60;;
1350;SDS011;669;50.206;9.998;2024-02-14T10:41:22;22.83;;;14.00;;
1350;SDS011;669;50.206;9.998;2024-02-14T10:43:51;25.90;;;14.50;;
1350;SDS011;669;50.206;9.998;2024-02-14T10:46:19;17.17;;;11.93;;
1350;SDS011;669;50.206;9.998;2024-02-14T10:48:49;11.90;;;8.77;;
1350;SDS011;669;50.206;9.998;2024-02-14T10:51:21;9.77;;;5.50;;
1350;SDS011;669;50.206;9.998;2024-02-14T10:53:50;8.50;;;5.23;;
1350;SDS011;669;50.206;9.998;2024-02-14T10:56:23;5.30;;;4.80;;
1350;SDS011;669;50.206;9.998;2024-02-14T10:58:58;6.20;;;4.97;;
1350;SDS011;669;50.206;9.998;2024-02-14T11:01:28;6.50;;;4.50;;
1350;SDS011;669;50.206;9.998;2024-02-14T11:03:58;5.27;;;4.07;;
1350;SDS011;669;50.206;9.998;2024-02-14T11:06:27;4.03;;;3.20;;
1350;SDS011;669;50.206;9.998;2024-02-14T11:08:56;4.13;;;3.00;;
1350;SDS011;669;50.206;9.998;2024-02-14T11:11:29;3.73;;;3.43;;
1350;SDS011;669;50.206;9.998;2024-02-14T11:13:57;5.93;;;3.40;;
1350;SDS011;669;50.206;9.998;2024-02-14T11:16:25;3.00;;;2.70;;
1350;SDS011;669;50.206;9.998;2024-02-14T11:19:05;3.10;;;2.43;;
1350;SDS011;669;50.206;9.998;2024-02-14T11:21:35;5.60;;;2.80;;
1350;SDS011;669;50.206;9.998;2024-02-14T11:24:05;5.67;;;2.47;;
1350;SDS011;669;50.206;9.998;2024-02-14T11:26:47;8.90;;;2.43;;
1350;SDS011;669;50.206;9.998;2024-02-14T11:29:18;3.57;;;2.63;;
1350;SDS011;669;50.206;9.998;2024-02-14T11:31:57;2.80;;;2.43;;
1350;SDS011;669;50.206;9.998;2024-02-14T11:34:26;7.03;;;2.70;;
1350;SDS011;669;50.206;9.998;2024-02-14T11:36:55;5.50;;;2.10;;
1350;SDS011;669;50.206;9.998;2024-02-14T11:39:23;4.20;;;2.50;;
1350;SDS011;669;50.206;9.998;2024-02-14T11:41:52;2.90;;;2.03;;
1350;SDS011;669;50.206;9.998;2024-02-14T11:44:20;2.90;;;2.13;;
1350;SDS011;669;50.206;9.998;2024-02-14T11:46:49;6.33;;;3.13;;
1350;SDS011;669;50.206;9.998;2024-02-14T11:49:17;2.43;;;2.10;;
1350;SDS011;669;50.206;9.998;2024-02-14T11:51:45;3.23;;;3.03;;
1350;SDS011;669;50.206;9.998;2024-02-14T11:54:14;3.40;;;2.20;;
1350;SDS011;669;50.206;9.998;2024-02-14T11:56:42;2.20;;;1.97;;
1350;SDS011;669;50.206;9.998;2024-02-14T11:59:11;2.43;;;2.23;;
1350;SDS011;669;50.206;9.998;2024-02-14T12:01:41;3.03;;;2.40;;
1350;SDS011;669;50.206;9.998;2024-02-14T12:04:10;2.93;;;1.77;;
1350;SDS011;669;50.206;9.998;2024-02-14T12:06:39;4.13;;;1.73;;
1350;SDS011;669;50.206;9.998;2024-02-14T12:09:08;1.87;;;1.77;;
1350;SDS011;669;50.206;9.998;2024-02-14T12:11:37;3.93;;;1.97;;
1350;SDS011;669;50.206;9.998;2024-02-14T12:14:09;2.00;;;1.57;;
1350;SDS011;669;50.206;9.998;2024-02-14T12:16:39;1.87;;;1.77;;
1350;SDS011;669;50.206;9.998;2024-02-14T12:19:08;1.73;;;1.63;;
1350;SDS011;669;50.206;9.998;2024-02-14T12:21:38;1.70;;;1.60;;
1350;SDS011;669;50.206;9.998;2024-02-14T12:24:07;4.90;;;1.87;;
1350;SDS011;669;50.206;9.998;2024-02-14T12:26:37;2.63;;;1.47;;
1350;SDS011;669;50.206;9.998;2024-02-14T12:29:06;1.37;;;1.27;;
1350;SDS011;669;50.206;9.998;2024-02-14T12:31:34;1.30;;;1.20;;
1350;SDS011;669;50.206;9.998;2024-02-14T12:34:04;1.87;;;1.40;;
1350;SDS011;669;50.206;9.998;2024-02-14T12:36:33;4.83;;;1.40;;
1350;SDS011;669;50.206;9.998;2024-02-14T12:39:02;1.53;;;1.43;;
1350;SDS011;669;50.206;9.998;2024-02-14T12:41:30;0.97;;;0.97;;
1350;SDS011;669;50.206;9.998;2024-02-14T12:44:01;1.73;;;1.60;;
1350;SDS011;669;50.206;9.998;2024-02-14T12:46:29;1.43;;;1.33;;
1350;SDS011;669;50.206;9.998;2024-02-14T12:48:57;2.73;;;1.90;;
1350;SDS011;669;50.206;9.998;2024-02-14T12:51:27;1.70;;;1.60;;
1350;SDS011;669;50.206;9.998;2024-02-14T12:53:56;2.50;;;1.23;;
1350;SDS011;669;50.206;9.998;2024-02-14T12:56:24;1.37;;;1.10;;
1350;SDS011;669;50.206;9.998;2024-02-14T12:58:52;2.10;;;1.33;;
1350;SDS011;669;50.206;9.998;2024-02-14T13:01:20;1.40;;;1.30;;
1350;SDS011;669;50.206;9.998;2024-02-14T13:03:48;10.40;;;2.53;;
1350;SDS011;669;50.206;9.998;2024-02-14T13:06:16;1.10;;;1.10;;
1350;SDS011;669;50.206;9.998;2024-02-14T13:08:46;1.00;;;0.90;;
1350;SDS011;669;50.206;9.998;2024-02-14T13:11:14;1.10;;;1.10;;
1350;SDS011;669;50.206;9.998;2024-02-14T13:13:42;1.43;;;0.87;;
1350;SDS011;669;50.206;9.998;2024-02-14T13:16:11;8.20;;;1.53;;
1350;SDS011;669;50.206;9.998;2024-02-14T13:18:38;1.60;;;1.07;;
1350;SDS011;669;50.206;9.998;2024-02-14T13:21:07;2.27;;;1.47;;
1350;SDS011;669;50.206;9.998;2024-02-14T13:23:35;1.67;;;1.57;;
1350;SDS011;669;50.206;9.998;2024-02-14T13:26:05;0.87;;;0.87;;
1350;SDS011;669;50.206;9.998;2024-02-14T13:28:34;2.20;;;0.93;;
1350;SDS011;669;50.206;9.998;2024-02-14T13:31:02;0.77;;;0.77;;
1350;SDS011;669;50.206;9.998;2024-02-14T13:33:30;0.80;;;0.80;;
1350;SDS011;669;50.206;9.998;2024-02-14T13:35:59;1.10;;;1.10;;
1350;SDS011;669;50.206;9.998;2024-02-14T13:38:27;1.83;;;1.20;;
1350;SDS011;669;50.206;9.998;2024-02-14T13:40:55;1.30;;;1.20;;
1350;SDS011;669;50.206;9.998;2024-02-14T13:43:24;1.20;;;1.10;;
1350;SDS011;669;50.206;9.998;2024-02-14T13:45:52;2.33;;;1.53;;
1350;SDS011;669;50.206;9.998;2024-02-14T13:48:20;3.33;;;1.23;;
1350;SDS011;669;50.206;9.998;2024-02-14T13:50:48;1.77;;;1.00;;
1350;SDS011;669;50.206;9.998;2024-02-14T13:53:18;1.50;;;1.40;;
1350;SDS011;669;50.206;9.998;2024-02-14T13:55:49;1.80;;;1.03;;
1350;SDS011;669;50.206;9.998;2024-02-14T13:58:18;1.03;;;0.97;;
1350;SDS011;669;50.206;9.998;2024-02-14T14:00:47;1.20;;;1.10;;
1350;SDS011;669;50.206;9.998;2024-02-14T14:03:15;1.50;;;1.37;;
1350;SDS011;669;50.206;9.998;2024-02-14T14:05:43;1.77;;;1.50;;
1350;SDS011;669;50.206;9.998;2024-02-14T14:08:11;1.43;;;1.33;;
1350;SDS011;669;50.206;9.998;2024-02-14T14:10:39;1.70;;;1.50;;
1350;SDS011;669;50.206;9.998;2024-02-14T14:13:09;1.40;;;1.30;;
1350;SDS011;669;50.206;9.998;2024-02-14T14:15:37;1.47;;;1.33;;
1350;SDS011;669;50.206;9.998;2024-02-14T14:18:06;3.30;;;1.23;;
1350;SDS011;669;50.206;9.998;2024-02-14T14:20:35;2.83;;;1.23;;
1350;SDS011;669;50.206;9.998;2024-02-14T14:23:03;1.90;;;1.20;;
1350;SDS011;669;50.206;9.998;2024-02-14T14:25:32;1.50;;;1.40;;
1350;SDS011;669;50.206;9.998;2024-02-14T14:28:00;1.40;;;1.30;;
1350;SDS011;669;50.206;9.998;2024-02-14T14:30:33;2.77;;;1.40;;
1350;SDS011;669;50.206;9.998;2024-02-14T14:33:01;2.20;;;1.13;;
1350;SDS011;669;50.206;9.998;2024-02-14T14:35:30;4.07;;;1.87;;
1350;SDS011;669;50.206;9.998;2024-02-14T14:37:59;1.83;;;1.73;;
1350;SDS011;669;50.206;9.998;2024-02-14T14:40:29;1.13;;;1.13;;
1350;SDS011;669;50.206;9.998;2024-02-14T14:42:57;2.73;;;1.90;;
1350;SDS011;669;50.206;9.998;2024-02-14T14:45:25;1.40;;;1.30;;
1350;SDS011;669;50.206;9.998;2024-02-14T14:47:54;2.30;;;2.10;;
1350;SDS011;669;50.206;9.998;2024-02-14T14:50:22;2.60;;;1.80;;
1350;SDS011;669;50.206;9.998;2024-02-14T14:52:53;2.00;;;1.90;;
1350;SDS011;669;50.206;9.998;2024-02-14T14:55:21;1.60;;;1.50;;
1350;SDS011;669;50.206;9.998;2024-02-14T14:57:48;1.33;;;1.23;;
1350;SDS011;669;50.206;9.998;2024-02-14T15:00:17;4.83;;;2.13;;
1350;SDS011;669;50.206;9.998;2024-02-14T15:02:47;2.00;;;1.60;;
1350;SDS011;669;50.206;9.998;2024-02-14T15:05:16;2.63;;;1.53;;
1350;SDS011;669;50.206;9.998;2024-02-14T15:07:45;3.23;;;1.60;;
1350;SDS011;669;50.206;9.998;2024-02-14T15:10:14;1.43;;;1.30;;
1350;SDS011;669;50.206;9.998;2024-02-14T15:12:42;1.43;;;1.33;;
1350;SDS011;669;50.206;9.998;2024-02-14T15:15:11;2.20;;;2.00;;
1350;SDS011;669;50.206;9.998;2024-02-14T15:17:40;2.60;;;2.23;;
1350;SDS011;669;50.206;9.998;2024-02-14T15:20:09;4.80;;;1.70;;
1350;SDS011;669;50.206;9.998;2024-02-14T15:22:37;1.60;;;1.50;;
1350;SDS011;669;50.206;9.998;2024-02-14T15:25:05;2.30;;;2.10;;
1350;SDS011;669;50.206;9.998;2024-02-14T15:27:35;2.47;;;2.20;;
1350;SDS011;669;50.206;9.998;2024-02-14T15:30:07;2.20;;;2.00;;
1350;SDS011;669;50.206;9.998;2024-02-14T15:32:53;5.27;;;4.87;;
1350;SDS011;669;50.206;9.998;2024-02-14T15:35:53;4.10;;;3.63;;
1350;SDS011;669;50.206;9.998;2024-02-14T15:38:23;2.30;;;2.20;;
1350;SDS011;669;50.206;9.998;2024-02-14T15:40:51;2.30;;;2.20;;